createdAt,value
2022-08-18T00:01:07.724Z,4.27
2022-08-18T00:03:56.862Z,4.10
2022-08-18T00:06:28.677Z,3.87
2022-08-18T00:08:57.801Z,4.33
2022-08-18T00:11:25.825Z,3.77
2022-08-18T00:13:53.851Z,3.90
2022-08-18T00:16:22.733Z,3.23
2022-08-18T00:18:50.973Z,3.70
2022-08-18T00:21:19.193Z,3.87
2022-08-18T00:23:48.658Z,4.67
2022-08-18T00:26:16.733Z,3.77
2022-08-18T00:28:44.789Z,3.47
2022-08-18T00:31:12.954Z,3.70
2022-08-18T00:33:41.090Z,5.00
2022-08-18T00:36:09.089Z,4.20
2022-08-18T00:38:36.995Z,3.70
2022-08-18T00:41:06.475Z,3.63
2022-08-18T00:43:39.840Z,3.77
2022-08-18T00:46:09.373Z,5.17
2022-08-18T00:48:37.624Z,4.90
2022-08-18T00:51:09.673Z,3.63
2022-08-18T00:53:39.498Z,4.13
2022-08-18T00:56:11.488Z,3.60
2022-08-18T00:58:43.491Z,3.80
2022-08-18T01:01:12.030Z,3.70
2022-08-18T01:03:40.295Z,4.80
2022-08-18T01:06:10.593Z,3.60
2022-08-18T01:08:41.087Z,3.47
2022-08-18T01:11:11.641Z,3.50
2022-08-18T01:13:39.678Z,4.13
2022-08-18T01:16:22.033Z,3.57
2022-08-18T01:19:07.244Z,3.50
2022-08-18T01:21:53.688Z,4.07
2022-08-18T01:24:45.667Z,4.97
2022-08-18T01:27:14.110Z,3.77
2022-08-18T01:29:43.612Z,3.50
2022-08-18T01:32:12.662Z,3.60
2022-08-18T01:34:40.670Z,3.60
2022-08-18T01:37:10.207Z,3.47
2022-08-18T01:41:25.164Z,4.13
2022-08-18T01:42:27.752Z,6.43
2022-08-18T01:44:56.494Z,9.13
2022-08-18T01:47:24.496Z,3.70
2022-08-18T01:49:53.477Z,3.70
2022-08-18T01:52:22.179Z,3.87
2022-08-18T01:54:51.819Z,3.60
2022-08-18T01:57:21.428Z,3.10
2022-08-18T01:59:49.480Z,3.83
2022-08-18T02:02:19.188Z,3.93
2022-08-18T02:04:47.610Z,3.67
2022-08-18T02:07:15.998Z,3.73
2022-08-18T02:09:46.159Z,3.43
2022-08-18T02:12:20.875Z,3.47
2022-08-18T02:14:50.499Z,3.47
2022-08-18T02:17:19.241Z,3.70
2022-08-18T02:19:48.158Z,5.30
2022-08-18T02:22:17.531Z,3.90
2022-08-18T02:24:45.957Z,4.00
2022-08-18T02:27:14.487Z,6.00
2022-08-18T02:29:43.950Z,3.73
2022-08-18T02:32:11.988Z,4.07
2022-08-18T02:34:40.961Z,3.10
2022-08-18T02:37:13.120Z,3.83
2022-08-18T02:39:43.150Z,4.23
2022-08-18T02:42:11.267Z,3.83
2022-08-18T02:44:39.223Z,3.87
2022-08-18T02:47:11.645Z,3.63
2022-08-18T02:49:39.993Z,4.17
2022-08-18T02:52:08.028Z,3.70
2022-08-18T02:54:36.618Z,4.17
2022-08-18T02:57:08.115Z,3.47
2022-08-18T02:59:37.418Z,3.50
2022-08-18T03:02:08.056Z,3.77
2022-08-18T03:04:38.154Z,3.40
2022-08-18T03:07:07.133Z,4.90
2022-08-18T03:09:35.578Z,4.03
2022-08-18T03:12:04.223Z,3.63
2022-08-18T03:14:32.232Z,4.20
2022-08-18T03:17:01.068Z,3.63
2022-08-18T03:19:29.701Z,3.83
2022-08-18T03:22:03.082Z,3.83
2022-08-18T03:24:32.251Z,4.13
2022-08-18T03:27:01.733Z,4.80
2022-08-18T03:29:32.726Z,4.03
2022-08-18T03:32:01.258Z,4.00
2022-08-18T03:34:29.658Z,3.70
2022-08-18T03:36:59.144Z,3.90
2022-08-18T03:39:28.212Z,10.73
2022-08-18T03:42:01.586Z,4.30
2022-08-18T03:44:30.908Z,5.80
2022-08-18T03:46:59.247Z,4.30
2022-08-18T03:49:28.020Z,4.90
2022-08-18T03:51:56.177Z,4.53
2022-08-18T03:54:26.318Z,4.53
2022-08-18T03:56:56.054Z,6.03
2022-08-18T03:59:25.543Z,7.00
2022-08-18T04:01:54.995Z,4.73
2022-08-18T04:04:24.780Z,5.10
2022-08-18T04:06:54.924Z,3.93
2022-08-18T04:09:24.467Z,4.70
2022-08-18T04:11:53.673Z,4.23
2022-08-18T04:14:24.747Z,4.37
2022-08-18T04:16:53.113Z,4.37
2022-08-18T04:19:26.304Z,9.23
2022-08-18T04:21:55.426Z,7.40
2022-08-18T04:24:23.477Z,5.50
2022-08-18T04:26:52.953Z,4.53
2022-08-18T04:29:21.766Z,4.93
2022-08-18T04:31:50.175Z,6.43
2022-08-18T04:34:22.931Z,5.23
2022-08-18T04:36:54.122Z,5.37
2022-08-18T04:39:22.847Z,5.37
2022-08-18T04:41:51.021Z,5.53
2022-08-18T04:44:21.663Z,4.47
2022-08-18T04:46:53.106Z,6.33
2022-08-18T04:49:21.815Z,4.90
2022-08-18T04:52:34.401Z,5.63
2022-08-18T04:55:02.201Z,5.57
2022-08-18T04:57:33.675Z,5.40
2022-08-18T05:00:06.934Z,10.00
2022-08-18T05:02:35.104Z,5.00
2022-08-18T05:05:04.312Z,7.27
2022-08-18T05:07:32.628Z,4.37
2022-08-18T05:10:02.319Z,5.00
2022-08-18T05:12:33.114Z,5.23
2022-08-18T05:15:01.268Z,5.80
2022-08-18T05:17:32.160Z,6.53
2022-08-18T05:20:01.028Z,4.40
2022-08-18T05:22:31.758Z,5.40
2022-08-18T05:25:00.501Z,4.87
2022-08-18T05:27:34.616Z,3.83
2022-08-18T05:30:03.992Z,4.67
2022-08-18T05:32:47.561Z,6.00
2022-08-18T05:35:21.710Z,4.10
2022-08-18T05:37:57.977Z,6.83
2022-08-18T05:40:26.168Z,4.20
2022-08-18T05:42:56.328Z,8.50
2022-08-18T05:45:24.403Z,4.83
2022-08-18T05:47:55.193Z,3.70
2022-08-18T05:50:23.511Z,4.20
2022-08-18T05:52:53.767Z,4.40
2022-08-18T05:55:47.603Z,5.43
2022-08-18T05:58:17.680Z,5.37
2022-08-18T06:00:46.453Z,6.33
2022-08-18T06:03:17.798Z,3.57
2022-08-18T06:05:51.200Z,6.30
2022-08-18T06:08:19.253Z,8.13
2022-08-18T06:10:48.702Z,6.20
2022-08-18T06:13:20.030Z,4.67
2022-08-18T06:15:52.292Z,8.00
2022-08-18T06:18:33.665Z,7.23
2022-08-18T06:21:29.125Z,6.17
2022-08-18T06:24:11.011Z,4.33
2022-08-18T06:26:41.822Z,5.63
2022-08-18T06:29:17.553Z,4.13
2022-08-18T06:31:47.002Z,4.40
2022-08-18T06:34:21.809Z,4.23
2022-08-18T06:36:57.285Z,4.50
2022-08-18T06:39:34.617Z,4.93
2022-08-18T06:42:05.968Z,5.40
2022-08-18T06:44:35.827Z,4.30
2022-08-18T06:47:06.441Z,5.83
2022-08-18T06:49:42.507Z,5.97
2022-08-18T06:52:24.780Z,4.77
2022-08-18T06:54:55.336Z,3.90
2022-08-18T06:57:29.046Z,6.97
2022-08-18T07:00:01.902Z,4.57
2022-08-18T07:02:47.318Z,5.53
2022-08-18T07:05:22.599Z,8.70
2022-08-18T07:08:11.742Z,4.30
2022-08-18T07:10:40.828Z,4.00
2022-08-18T07:13:15.749Z,4.33
2022-08-18T07:15:45.707Z,5.63
2022-08-18T07:18:14.179Z,4.27
2022-08-18T07:20:48.321Z,3.80
2022-08-18T07:23:24.432Z,4.03
2022-08-18T07:25:54.723Z,3.90
2022-08-18T07:28:29.506Z,4.03
2022-08-18T07:31:17.226Z,6.50
2022-08-18T07:33:50.687Z,4.80
2022-08-18T07:36:22.048Z,4.10
2022-08-18T07:38:54.549Z,4.47
2022-08-18T07:41:26.926Z,4.10
2022-08-18T07:44:01.299Z,4.60
2022-08-18T07:46:36.446Z,4.00
2022-08-18T07:49:05.709Z,4.70
2022-08-18T07:51:43.827Z,4.23
2022-08-18T07:54:45.400Z,3.60
2022-08-18T07:57:19.664Z,4.20
2022-08-18T07:59:51.501Z,4.77
2022-08-18T08:02:24.541Z,4.03
2022-08-18T08:05:01.808Z,4.07
2022-08-18T08:07:32.888Z,3.83
2022-08-18T08:10:09.955Z,3.97
2022-08-18T08:12:41.420Z,4.37
2022-08-18T08:15:26.639Z,3.73
2022-08-18T08:17:59.151Z,4.63
2022-08-18T08:20:32.929Z,3.50
2022-08-18T08:23:15.166Z,3.93
2022-08-18T08:25:49.381Z,4.57
2022-08-18T08:28:23.075Z,4.67
2022-08-18T08:30:55.363Z,5.43
2022-08-18T08:33:26.132Z,4.53
2022-08-18T08:35:56.073Z,4.10
2022-08-18T08:38:42.682Z,4.00
2022-08-18T08:41:14.598Z,4.10
2022-08-18T08:43:45.309Z,3.33
2022-08-18T08:46:14.852Z,4.13
2022-08-18T08:48:44.332Z,4.10
2022-08-18T08:51:32.426Z,3.97
2022-08-18T08:54:05.353Z,4.00
2022-08-18T08:56:37.399Z,3.53
2022-08-18T08:59:07.032Z,3.40
2022-08-18T09:01:37.807Z,3.50
2022-08-18T09:04:14.551Z,4.07
2022-08-18T09:06:45.941Z,3.40
2022-08-18T09:09:26.327Z,3.67
2022-08-18T09:12:18.257Z,3.80
2022-08-18T09:15:27.035Z,3.20
2022-08-18T09:18:08.593Z,3.20
2022-08-18T09:20:49.308Z,2.97
2022-08-18T09:23:19.302Z,3.70
2022-08-18T09:25:50.762Z,3.30
2022-08-18T09:28:19.981Z,3.73
2022-08-18T09:30:53.243Z,3.13
2022-08-18T09:33:45.641Z,3.83
2022-08-18T09:36:33.129Z,3.13
2022-08-18T09:39:20.567Z,3.67
2022-08-18T09:41:54.426Z,2.80
2022-08-18T09:45:04.737Z,3.50
2022-08-18T09:48:02.781Z,3.80
2022-08-18T09:50:38.372Z,3.97
2022-08-18T09:53:35.389Z,3.00
2022-08-18T09:56:06.316Z,3.70
2022-08-18T09:58:53.989Z,5.47
2022-08-18T10:01:38.250Z,3.10
2022-08-18T10:04:31.212Z,2.87
2022-08-18T10:07:36.955Z,3.60
2022-08-18T10:11:00.976Z,4.10
2022-08-18T10:13:08.186Z,3.63
2022-08-18T10:15:49.515Z,3.60
2022-08-18T10:18:48.114Z,3.13
2022-08-18T10:21:21.189Z,3.20
2022-08-18T10:24:03.168Z,3.10
2022-08-18T10:27:11.006Z,2.90
2022-08-18T10:29:48.158Z,2.77
2022-08-18T10:32:40.054Z,3.03
2022-08-18T10:35:28.683Z,3.13
2022-08-18T10:38:00.869Z,3.20
2022-08-18T10:40:28.921Z,3.30
2022-08-18T10:43:10.672Z,3.27
2022-08-18T10:48:40.226Z,4.63
2022-08-18T10:51:14.289Z,2.60
2022-08-18T10:53:52.235Z,3.07
2022-08-18T10:56:27.966Z,2.70
2022-08-18T10:59:16.097Z,2.70
2022-08-18T11:01:59.566Z,2.63
2022-08-18T11:04:34.172Z,2.50
2022-08-18T11:07:08.158Z,2.37
2022-08-18T11:09:36.913Z,2.57
2022-08-18T11:12:09.687Z,2.60
2022-08-18T11:14:57.294Z,2.83
2022-08-18T11:17:32.605Z,2.60
2022-08-18T11:20:02.086Z,2.57
2022-08-18T11:22:33.151Z,2.50
2022-08-18T11:27:51.211Z,2.40
2022-08-18T11:30:31.143Z,2.40
2022-08-18T11:33:02.603Z,2.47
2022-08-18T11:35:34.392Z,2.70
2022-08-18T11:38:03.289Z,2.33
2022-08-18T11:43:29.822Z,2.57
2022-08-18T11:46:14.226Z,3.07
2022-08-18T11:48:51.779Z,2.50
2022-08-18T11:51:24.862Z,2.77
2022-08-18T11:53:58.552Z,3.43
2022-08-18T11:56:31.260Z,2.70
2022-08-18T11:59:00.935Z,2.37
2022-08-18T12:01:41.602Z,2.03
2022-08-18T12:04:22.093Z,3.57
2022-08-18T12:07:12.505Z,2.23
2022-08-18T12:12:32.412Z,2.33
2022-08-18T12:15:11.859Z,2.10
2022-08-18T12:17:52.496Z,1.77
2022-08-18T12:20:21.851Z,2.00
2022-08-18T12:22:54.312Z,1.73
2022-08-18T12:25:24.596Z,1.93
2022-08-18T12:27:53.690Z,2.00
2022-08-18T12:30:21.743Z,2.23
2022-08-18T12:32:56.248Z,2.30
2022-08-18T12:35:33.266Z,2.20
2022-08-18T12:38:12.972Z,2.70
2022-08-18T12:40:42.420Z,1.87
2022-08-18T12:43:10.617Z,2.03
2022-08-18T12:45:38.920Z,2.40
2022-08-18T12:48:07.805Z,1.93
2022-08-18T12:50:42.628Z,2.07
2022-08-18T12:53:30.537Z,1.90
2022-08-18T12:59:07.638Z,1.90
2022-08-18T13:01:36.213Z,2.07
2022-08-18T13:04:13.280Z,2.53
2022-08-18T13:06:59.395Z,1.93
2022-08-18T13:09:35.695Z,2.47
2022-08-18T13:12:19.743Z,2.00
2022-08-18T13:14:48.087Z,2.10
2022-08-18T13:17:29.995Z,3.37
2022-08-18T13:20:02.762Z,2.33
2022-08-18T13:22:32.622Z,2.20
2022-08-18T13:25:03.885Z,2.20
2022-08-18T13:27:35.353Z,2.10
2022-08-18T13:30:29.252Z,2.60
2022-08-18T13:32:58.803Z,2.50
2022-08-18T13:35:30.072Z,2.77
2022-08-18T13:38:15.866Z,2.30
2022-08-18T13:40:52.187Z,2.50
2022-08-18T13:43:23.482Z,2.40
2022-08-18T13:45:53.266Z,2.50
2022-08-18T13:48:25.581Z,2.40
2022-08-18T13:50:55.981Z,2.43
2022-08-18T13:53:24.703Z,2.20
2022-08-18T13:55:58.679Z,2.33
2022-08-18T13:58:27.176Z,2.20
2022-08-18T14:01:15.875Z,2.30
2022-08-18T14:03:47.331Z,6.53
2022-08-18T14:06:15.840Z,2.07
2022-08-18T14:08:51.198Z,2.20
2022-08-18T14:11:20.764Z,2.20
2022-08-18T14:13:49.909Z,2.20
2022-08-18T14:16:19.443Z,1.70
2022-08-18T14:19:10.046Z,1.70
2022-08-18T14:21:57.462Z,2.03
2022-08-18T14:24:42.815Z,1.90
2022-08-18T14:27:18.692Z,1.97
2022-08-18T14:29:49.840Z,2.20
2022-08-18T14:32:21.965Z,2.03
2022-08-18T14:35:00.542Z,2.43
2022-08-18T14:37:29.551Z,1.93
2022-08-18T14:39:58.027Z,2.23
2022-08-18T14:42:41.174Z,2.37
2022-08-18T14:45:26.489Z,2.03
2022-08-18T14:48:02.499Z,2.50
2022-08-18T14:50:35.047Z,2.40
2022-08-18T14:53:03.085Z,2.50
2022-08-18T14:55:31.084Z,2.00
2022-08-18T14:58:02.426Z,2.60
2022-08-18T15:00:32.137Z,1.90
2022-08-18T15:03:01.075Z,2.27
2022-08-18T15:05:33.830Z,2.00
2022-08-18T15:08:03.886Z,2.03
2022-08-18T15:10:32.373Z,2.10
2022-08-18T15:13:02.270Z,2.30
2022-08-18T15:15:50.760Z,2.30
2022-08-18T15:18:22.839Z,1.93
2022-08-18T15:21:10.376Z,2.80
2022-08-18T15:24:05.235Z,3.03
2022-08-18T15:26:47.868Z,2.10
2022-08-18T15:29:22.556Z,2.07
2022-08-18T15:31:59.713Z,2.00
2022-08-18T15:34:33.357Z,1.73
2022-08-18T15:37:15.873Z,2.47
2022-08-18T15:39:51.847Z,2.10
2022-08-18T15:42:23.990Z,2.17
2022-08-18T15:44:54.113Z,1.97
2022-08-18T15:47:25.178Z,2.10
2022-08-18T15:49:54.846Z,2.30
2022-08-18T15:52:25.829Z,2.20
2022-08-18T15:54:57.031Z,1.73
2022-08-18T15:57:38.520Z,2.20
2022-08-18T16:00:12.202Z,1.93
2022-08-18T16:02:40.909Z,1.90
2022-08-18T16:05:17.034Z,2.30
2022-08-18T16:07:46.091Z,2.10
2022-08-18T16:10:14.142Z,2.07
2022-08-18T16:12:45.659Z,1.83
2022-08-18T16:15:21.588Z,1.77
2022-08-18T16:17:50.580Z,2.03
2022-08-18T16:20:19.355Z,2.07
2022-08-18T16:22:47.593Z,2.17
2022-08-18T16:25:16.582Z,2.37
2022-08-18T16:27:44.816Z,2.00
2022-08-18T16:30:14.696Z,2.50
2022-08-18T16:32:45.190Z,2.00
2022-08-18T16:35:13.223Z,2.87
2022-08-18T16:37:41.325Z,1.80
2022-08-18T16:40:10.365Z,1.80
2022-08-18T16:42:38.471Z,2.10
2022-08-18T16:45:08.980Z,2.10
2022-08-18T16:47:39.191Z,1.83
2022-08-18T16:50:10.039Z,2.10
2022-08-18T16:52:38.137Z,2.10
2022-08-18T16:55:06.724Z,1.80
2022-08-18T16:57:54.984Z,1.93
2022-08-18T17:00:41.342Z,2.07
2022-08-18T17:03:27.311Z,1.90
2022-08-18T17:06:02.112Z,1.93
2022-08-18T17:08:33.541Z,1.80
2022-08-18T17:11:02.048Z,1.60
2022-08-18T17:13:30.493Z,1.90
2022-08-18T17:15:58.506Z,1.90
2022-08-18T17:18:27.505Z,1.87
2022-08-18T17:20:55.630Z,1.53
2022-08-18T17:23:24.913Z,1.80
2022-08-18T17:25:52.941Z,1.70
2022-08-18T17:28:26.179Z,1.93
2022-08-18T17:30:54.593Z,2.07
2022-08-18T17:33:24.631Z,1.70
2022-08-18T17:35:54.140Z,1.67
2022-08-18T17:38:27.489Z,1.63
2022-08-18T17:40:56.824Z,1.53
2022-08-18T17:43:26.819Z,1.77
2022-08-18T17:45:55.844Z,1.70
2022-08-18T17:48:25.284Z,1.80
2022-08-18T17:51:13.109Z,1.80
2022-08-18T17:53:42.481Z,1.70
2022-08-18T17:56:12.793Z,1.60
2022-08-18T17:58:42.478Z,1.43
2022-08-18T18:01:10.930Z,1.60
2022-08-18T18:03:39.134Z,1.70
2022-08-18T18:06:10.905Z,1.70
2022-08-18T18:08:50.675Z,1.70
2022-08-18T18:11:25.051Z,2.90
2022-08-18T18:13:53.026Z,1.60
2022-08-18T18:16:24.265Z,1.60
2022-08-18T18:19:00.907Z,1.40
2022-08-18T18:22:00.913Z,1.60
2022-08-18T18:24:24.526Z,1.97
2022-08-18T18:26:52.687Z,1.57
2022-08-18T18:29:22.424Z,1.80
2022-08-18T18:32:00.554Z,2.43
2022-08-18T18:34:31.641Z,1.50
2022-08-18T18:37:00.113Z,1.40
2022-08-18T18:39:33.102Z,1.30
2022-08-18T18:42:14.474Z,1.77
2022-08-18T18:44:51.696Z,1.60
2022-08-18T18:47:33.730Z,1.40
2022-08-18T18:50:04.701Z,1.73
2022-08-18T18:52:37.399Z,1.30
2022-08-18T18:55:08.813Z,1.60
2022-08-18T18:57:42.005Z,1.60
2022-08-18T19:00:18.361Z,1.70
2022-08-18T19:02:55.026Z,1.67
2022-08-18T19:05:27.519Z,1.50
2022-08-18T19:08:03.798Z,1.60
2022-08-18T19:10:36.608Z,1.50
2022-08-18T19:13:08.067Z,1.47
2022-08-18T19:15:38.370Z,1.70
2022-08-18T19:18:15.969Z,1.63
2022-08-18T19:21:25.504Z,1.63
2022-08-18T19:23:44.993Z,1.70
2022-08-18T19:26:22.857Z,1.53
2022-08-18T19:29:12.341Z,1.70
2022-08-18T19:31:43.135Z,1.67
2022-08-18T19:34:16.504Z,2.00
2022-08-18T19:36:48.519Z,1.70
2022-08-18T19:39:18.324Z,1.90
2022-08-18T19:41:50.771Z,1.50
2022-08-18T19:44:35.738Z,1.67
2022-08-18T19:47:08.550Z,1.60
2022-08-18T19:49:39.410Z,1.83
2022-08-18T19:52:45.994Z,1.50
2022-08-18T19:55:06.678Z,1.70
2022-08-18T19:57:46.230Z,1.87
2022-08-18T20:00:20.546Z,1.90
2022-08-18T20:03:21.005Z,1.60
2022-08-18T20:05:54.758Z,1.53
2022-08-18T20:08:52.106Z,1.70
2022-08-18T20:11:48.292Z,1.43
2022-08-18T20:14:19.615Z,1.90
2022-08-18T20:17:07.243Z,1.83
2022-08-18T20:19:44.409Z,1.70
2022-08-18T20:22:16.219Z,1.83
2022-08-18T20:24:51.442Z,1.77
2022-08-18T20:27:35.239Z,1.33
2022-08-18T20:30:26.940Z,1.67
2022-08-18T20:33:19.300Z,1.70
2022-08-18T20:35:59.322Z,2.73
2022-08-18T20:38:34.928Z,1.80
2022-08-18T20:41:41.676Z,1.90
2022-08-18T20:44:28.989Z,1.70
2022-08-18T20:47:03.619Z,1.77
2022-08-18T20:49:35.373Z,1.70
2022-08-18T20:52:06.518Z,1.47
2022-08-18T20:54:57.752Z,1.63
2022-08-18T20:57:26.637Z,1.80
2022-08-18T20:59:59.233Z,1.57
2022-08-18T21:02:29.681Z,2.00
2022-08-18T21:05:00.714Z,2.00
2022-08-18T21:07:36.703Z,2.00
2022-08-18T21:10:12.484Z,1.70
2022-08-18T21:12:52.140Z,2.20
2022-08-18T21:15:21.105Z,1.90
2022-08-18T21:17:58.130Z,1.40
2022-08-18T21:20:27.721Z,1.57
2022-08-18T21:23:06.280Z,1.70
2022-08-18T21:25:34.347Z,1.90
2022-08-18T21:28:15.430Z,1.57
2022-08-18T21:30:54.895Z,2.20
2022-08-18T21:33:23.186Z,2.00
2022-08-18T21:35:54.801Z,2.77
2022-08-18T21:38:26.741Z,5.23
2022-08-18T21:40:57.155Z,1.80
2022-08-18T21:43:36.067Z,1.70
2022-08-18T21:46:04.421Z,1.60
2022-08-18T21:48:33.980Z,2.60
2022-08-18T21:51:06.635Z,1.90
2022-08-18T21:53:35.471Z,2.13
2022-08-18T21:56:03.480Z,1.80
2022-08-18T21:58:38.945Z,1.50
2022-08-18T22:01:16.267Z,1.83
2022-08-18T22:03:54.785Z,1.53
2022-08-18T22:06:35.818Z,1.93
2022-08-18T22:09:28.620Z,1.67
2022-08-18T22:16:28.564Z,3.60
2022-08-18T22:19:08.578Z,2.30
2022-08-18T22:21:40.631Z,2.00
2022-08-18T22:24:19.782Z,2.70
2022-08-18T22:26:50.520Z,2.03
2022-08-18T22:29:27.896Z,2.27
2022-08-18T22:31:55.861Z,2.50
2022-08-18T22:34:27.164Z,2.23
2022-08-18T22:37:00.487Z,2.57
2022-08-18T22:39:30.014Z,2.30
2022-08-18T22:41:58.257Z,2.77
2022-08-18T22:44:26.316Z,2.60
2022-08-18T22:46:54.321Z,2.70
2022-08-18T22:49:22.414Z,3.00
2022-08-18T22:51:51.555Z,3.50
2022-08-18T22:54:21.597Z,3.63
2022-08-18T22:56:56.351Z,3.73
2022-08-18T22:59:26.880Z,4.00
2022-08-18T23:01:55.715Z,3.77
2022-08-18T23:04:25.553Z,3.87
2022-08-18T23:06:53.929Z,4.50
2022-08-18T23:09:26.834Z,3.93
2022-08-18T23:11:56.433Z,4.30
2022-08-18T23:14:24.556Z,4.33
2022-08-18T23:16:55.117Z,5.67
2022-08-18T23:19:23.320Z,4.67
2022-08-18T23:21:52.313Z,4.47
2022-08-18T23:24:21.124Z,4.37
2022-08-18T23:26:50.958Z,4.57
2022-08-18T23:29:19.959Z,4.27
2022-08-18T23:31:48.522Z,4.67
2022-08-18T23:34:17.518Z,5.40
2022-08-18T23:36:46.170Z,6.00
2022-08-18T23:39:14.597Z,6.80
2022-08-18T23:41:42.744Z,9.60
2022-08-18T23:44:15.013Z,8.03
2022-08-18T23:46:43.774Z,8.87
2022-08-18T23:49:14.641Z,10.80
2022-08-18T23:51:46.385Z,10.13
2022-08-18T23:54:17.818Z,11.67
2022-08-18T23:56:56.362Z,13.47
2022-08-18T23:59:26.487Z,15.20
